createdAt,value
2024-01-18T00:00:55.152Z,97362.46
2024-01-18T00:03:25.920Z,97363.63
2024-01-18T00:05:56.762Z,97371.27
2024-01-18T00:08:27.365Z,97367.20
2024-01-18T00:10:57.881Z,97368.56
2024-01-18T00:13:28.409Z,97371.95
2024-01-18T00:15:58.955Z,97369.92
2024-01-18T00:18:29.941Z,97370.59
2024-01-18T00:21:00.863Z,97371.77
2024-01-18T00:23:31.477Z,97358.73
2024-01-18T00:26:02.123Z,97364.65
2024-01-18T00:28:32.736Z,97370.91
2024-01-18T00:31:03.338Z,97378.86
2024-01-18T00:33:33.997Z,97383.09
2024-01-18T00:36:04.907Z,97382.77
2024-01-18T00:38:35.592Z,97386.83
2024-01-18T00:41:06.604Z,97390.55
2024-01-18T00:43:37.171Z,97389.37
2024-01-18T00:46:08.061Z,97389.02
2024-01-18T00:48:38.711Z,97385.98
2024-01-18T00:51:09.644Z,97380.07
2024-01-18T00:53:40.831Z,97390.38
2024-01-18T00:56:12.725Z,97397.98
2024-01-18T00:58:43.551Z,97393.92
2024-01-18T01:01:14.082Z,97403.57
2024-01-18T01:03:44.705Z,97407.29
2024-01-18T01:06:15.686Z,97403.75
2024-01-18T01:08:46.298Z,97411.01
2024-01-18T01:11:16.821Z,97413.39
2024-01-18T01:13:47.506Z,97413.90
2024-01-18T01:16:18.060Z,97422.21
2024-01-18T01:18:48.682Z,97424.23
2024-01-18T01:21:19.329Z,97428.13
2024-01-18T01:23:52.752Z,97424.07
2024-01-18T01:26:23.283Z,97428.14
2024-01-18T01:28:53.777Z,97425.09
2024-01-18T01:31:24.384Z,97420.02
2024-01-18T01:33:54.996Z,97424.25
2024-01-18T01:36:25.853Z,97424.42
2024-01-18T01:38:56.452Z,97429.35
2024-01-18T01:41:26.981Z,97431.04
2024-01-18T01:44:02.094Z,97435.30
2024-01-18T01:46:33.566Z,97439.71
2024-01-18T01:49:07.593Z,97446.83
2024-01-18T01:51:43.789Z,97451.56
2024-01-18T01:54:14.368Z,97453.59
2024-01-18T01:56:47.488Z,97455.24
2024-01-18T01:59:18.909Z,97455.75
2024-01-18T02:01:50.594Z,97456.75
2024-01-18T02:04:21.573Z,97460.48
2024-01-18T02:06:54.110Z,97461.16
2024-01-18T02:09:25.275Z,97458.29
2024-01-18T02:11:56.051Z,97459.48
2024-01-18T02:14:26.892Z,97462.88
2024-01-18T02:16:58.287Z,97466.44
2024-01-18T02:19:28.919Z,97470.69
2024-01-18T02:21:59.882Z,97478.64
2024-01-18T02:24:34.911Z,97480.66
2024-01-18T02:27:05.960Z,97484.36
2024-01-18T02:29:36.673Z,97479.45
2024-01-18T02:32:07.917Z,97480.48
2024-01-18T02:34:41.383Z,97478.77
2024-01-18T02:37:12.597Z,97481.66
2024-01-18T02:39:43.378Z,97479.11
2024-01-18T02:42:14.035Z,97478.27
2024-01-18T02:44:46.636Z,97490.63
2024-01-18T02:47:17.408Z,97492.82
2024-01-18T02:49:47.938Z,97500.78
2024-01-18T02:52:19.556Z,97506.35
2024-01-18T02:54:50.107Z,97505.16
2024-01-18T02:57:20.687Z,97505.00
2024-01-18T02:59:51.316Z,97502.30
2024-01-18T03:02:21.813Z,97501.95
2024-01-18T03:04:52.282Z,97508.72
2024-01-18T03:07:22.754Z,97504.00
2024-01-18T03:09:53.257Z,97497.05
2024-01-18T03:12:23.893Z,97498.72
2024-01-18T03:14:54.393Z,97505.82
2024-01-18T03:17:24.910Z,97515.65
2024-01-18T03:19:55.471Z,97513.79
2024-01-18T03:22:25.987Z,97519.37
2024-01-18T03:24:56.442Z,97528.65
2024-01-18T03:27:27.030Z,97528.13
2024-01-18T03:29:57.575Z,97520.36
2024-01-18T03:32:28.179Z,97524.58
2024-01-18T03:34:58.628Z,97536.91
2024-01-18T03:37:29.089Z,97543.15
2024-01-18T03:40:00.031Z,97550.26
2024-01-18T03:42:30.627Z,97550.23
2024-01-18T03:45:01.179Z,97555.84
2024-01-18T03:47:31.704Z,97557.69
2024-01-18T03:50:02.969Z,97563.28
2024-01-18T03:52:33.956Z,97570.73
2024-01-18T03:55:06.587Z,97577.65
2024-01-18T03:57:37.364Z,97582.72
2024-01-18T04:00:10.994Z,97593.70
2024-01-18T04:02:43.086Z,97599.44
2024-01-18T04:05:13.784Z,97597.56
2024-01-18T04:07:44.503Z,97598.70
2024-01-18T04:10:15.136Z,97606.30
2024-01-18T04:12:46.826Z,97616.95
2024-01-18T04:15:17.514Z,97617.94
2024-01-18T04:17:48.479Z,97617.23
2024-01-18T04:20:23.147Z,97615.20
2024-01-18T04:22:53.845Z,97613.64
2024-01-18T04:25:24.396Z,97617.17
2024-01-18T04:27:54.975Z,97627.14
2024-01-18T04:30:26.390Z,97630.01
2024-01-18T04:32:57.172Z,97628.30
2024-01-18T04:35:27.822Z,97632.52
2024-01-18T04:37:58.294Z,97640.98
2024-01-18T04:40:28.907Z,97651.10
2024-01-18T04:42:59.927Z,97657.85
2024-01-18T04:45:30.520Z,97664.09
2024-01-18T04:48:01.405Z,97663.91
2024-01-18T04:50:32.184Z,97661.36
2024-01-18T04:53:03.166Z,97665.07
2024-01-18T04:55:33.655Z,97663.36
2024-01-18T04:58:04.318Z,97670.11
2024-01-18T05:00:34.946Z,97673.46
2024-01-18T05:03:06.039Z,97682.93
2024-01-18T05:05:38.110Z,97687.83
2024-01-18T05:08:09.751Z,97696.39
2024-01-18T05:10:40.325Z,97700.40
2024-01-18T05:13:10.822Z,97708.97
2024-01-18T05:15:41.576Z,97711.96
2024-01-18T05:18:12.579Z,97717.86
2024-01-18T05:20:43.252Z,97721.68
2024-01-18T05:23:13.712Z,97728.73
2024-01-18T05:25:45.000Z,97731.36
2024-01-18T05:28:15.477Z,97736.05
2024-01-18T05:30:46.389Z,97735.33
2024-01-18T05:33:17.015Z,97734.42
2024-01-18T05:35:47.616Z,97745.90
2024-01-18T05:38:18.094Z,97752.33
2024-01-18T05:40:48.600Z,97759.24
2024-01-18T05:43:19.452Z,97765.13
2024-01-18T05:45:50.040Z,97759.68
2024-01-18T05:48:20.669Z,97760.30
2024-01-18T05:50:51.251Z,97763.66
2024-01-18T05:53:21.772Z,97771.57
2024-01-18T05:55:52.279Z,97774.79
2024-01-18T05:58:23.377Z,97776.13
2024-01-18T06:00:53.962Z,97777.28
2024-01-18T06:03:24.585Z,97783.32
2024-01-18T06:05:55.245Z,97783.27
2024-01-18T06:08:25.758Z,97785.98
2024-01-18T06:10:56.324Z,97790.29
2024-01-18T06:13:26.826Z,97799.42
2024-01-18T06:15:57.347Z,97800.99
2024-01-18T06:18:28.079Z,97804.08
2024-01-18T06:20:58.746Z,97810.33
2024-01-18T06:23:29.285Z,97815.05
2024-01-18T06:26:00.000Z,97820.91
2024-01-18T06:28:30.500Z,97827.45
2024-01-18T06:31:01.068Z,97831.27
2024-01-18T06:33:31.669Z,97840.23
2024-01-18T06:36:02.368Z,97843.63
2024-01-18T06:38:33.035Z,97844.98
2024-01-18T06:41:04.178Z,97845.27
2024-01-18T06:43:34.627Z,97852.02
2024-01-18T06:46:06.451Z,97855.68
2024-01-18T06:48:36.992Z,97859.48
2024-01-18T06:51:07.891Z,97861.16
2024-01-18T06:53:38.351Z,97861.98
2024-01-18T06:56:15.103Z,97865.23
2024-01-18T06:58:46.198Z,97864.89
2024-01-18T07:01:16.824Z,97868.23
2024-01-18T07:03:47.567Z,97867.21
2024-01-18T07:06:18.190Z,97872.42
2024-01-18T07:08:49.811Z,97871.89
2024-01-18T07:11:20.304Z,97875.79
2024-01-18T07:13:50.843Z,97874.42
2024-01-18T07:16:21.344Z,97884.86
2024-01-18T07:18:51.939Z,97885.84
2024-01-18T07:21:22.475Z,97887.05
2024-01-18T07:23:52.976Z,97888.41
2024-01-18T07:26:23.898Z,97896.67
2024-01-18T07:28:54.388Z,97899.74
2024-01-18T07:31:24.868Z,97896.55
2024-01-18T07:33:55.473Z,97896.05
2024-01-18T07:36:26.029Z,97891.30
2024-01-18T07:38:56.598Z,97898.54
2024-01-18T07:41:28.126Z,97904.50
2024-01-18T07:44:02.254Z,97908.64
2024-01-18T07:46:32.751Z,97912.75
2024-01-18T07:49:04.866Z,97911.25
2024-01-18T07:51:35.454Z,97907.90
2024-01-18T07:54:06.314Z,97909.50
2024-01-18T07:56:37.314Z,97915.63
2024-01-18T07:59:07.864Z,97922.06
2024-01-18T08:01:40.336Z,97921.73
2024-01-18T08:04:11.267Z,97921.71
2024-01-18T08:06:43.985Z,97925.54
2024-01-18T08:09:15.001Z,97937.49
2024-01-18T08:11:45.511Z,97951.81
2024-01-18T08:14:18.260Z,97960.23
2024-01-18T08:16:49.049Z,97963.60
2024-01-18T08:19:20.386Z,97965.95
2024-01-18T08:21:50.945Z,97963.94
2024-01-18T08:24:21.474Z,97959.79
2024-01-18T08:26:51.945Z,97951.73
2024-01-18T08:29:22.426Z,97951.90
2024-01-18T08:31:53.027Z,97960.16
2024-01-18T08:34:23.827Z,97967.22
2024-01-18T08:36:54.407Z,97972.45
2024-01-18T08:39:25.030Z,97973.27
2024-01-18T08:41:57.742Z,97978.67
2024-01-18T08:44:30.152Z,97984.05
2024-01-18T08:47:00.769Z,97990.28
2024-01-18T08:49:31.500Z,97992.96
2024-01-18T08:52:02.239Z,97991.14
2024-01-18T08:54:33.014Z,97998.95
2024-01-18T08:57:03.662Z,98002.33
2024-01-18T08:59:35.134Z,98002.30
2024-01-18T09:02:13.984Z,98004.85
2024-01-18T09:04:49.078Z,98003.98
2024-01-18T09:07:19.959Z,98006.57
2024-01-18T09:09:50.693Z,98010.28
2024-01-18T09:12:21.269Z,98007.75
2024-01-18T09:14:51.807Z,98009.42
2024-01-18T09:17:22.342Z,98013.44
2024-01-18T09:19:53.932Z,98023.54
2024-01-18T09:22:24.583Z,98026.23
2024-01-18T09:24:57.172Z,98030.59
2024-01-18T09:27:28.697Z,98034.92
2024-01-18T09:29:59.182Z,98036.94
2024-01-18T09:32:29.651Z,98047.75
2024-01-18T09:35:00.229Z,98050.66
2024-01-18T09:37:30.886Z,98058.45
2024-01-18T09:40:01.335Z,98057.45
2024-01-18T09:42:34.889Z,98050.91
2024-01-18T09:45:11.191Z,98045.22
2024-01-18T09:47:42.684Z,98045.69
2024-01-18T09:50:16.716Z,98048.69
2024-01-18T09:52:47.232Z,98052.14
2024-01-18T09:55:18.357Z,98054.35
2024-01-18T09:57:54.611Z,98054.35
2024-01-18T10:00:29.311Z,98055.73
2024-01-18T10:02:59.864Z,98056.90
2024-01-18T10:05:30.458Z,98052.14
2024-01-18T10:08:01.335Z,98051.23
2024-01-18T10:10:31.900Z,98053.21
2024-01-18T10:13:05.084Z,98056.05
2024-01-18T10:15:37.131Z,98057.23
2024-01-18T10:18:08.665Z,98060.26
2024-01-18T10:20:39.713Z,98057.87
2024-01-18T10:23:11.576Z,98061.73
2024-01-18T10:25:45.959Z,98056.58
2024-01-18T10:28:16.591Z,98048.21
2024-01-18T10:30:53.949Z,98059.77
2024-01-18T10:33:24.534Z,98072.81
2024-01-18T10:35:55.095Z,98080.19
2024-01-18T10:38:31.150Z,98088.70
2024-01-18T10:41:02.717Z,98082.45
2024-01-18T10:43:34.459Z,98089.69
2024-01-18T10:46:06.886Z,98093.52
2024-01-18T10:48:38.125Z,98083.33
2024-01-18T10:51:09.439Z,98074.14
2024-01-18T10:53:41.975Z,98067.23
2024-01-18T10:56:13.732Z,98066.94
2024-01-18T10:58:44.414Z,98072.69
2024-01-18T11:01:15.033Z,98074.85
2024-01-18T11:03:47.848Z,98085.46
2024-01-18T11:06:19.757Z,98086.64
2024-01-18T11:08:51.483Z,98083.42
2024-01-18T11:11:22.794Z,98074.80
2024-01-18T11:13:53.997Z,98078.71
2024-01-18T11:16:24.665Z,98083.28
2024-01-18T11:18:59.308Z,98084.50
2024-01-18T11:21:42.047Z,98086.20
2024-01-18T11:24:14.219Z,98085.64
2024-01-18T11:26:44.750Z,98083.09
2024-01-18T11:29:25.941Z,98079.55
2024-01-18T11:31:56.651Z,98079.08
2024-01-18T11:34:33.563Z,98085.20
2024-01-18T11:37:14.727Z,98090.33
2024-01-18T11:39:59.325Z,98090.39
2024-01-18T11:42:31.473Z,98091.90
2024-01-18T11:45:04.381Z,98095.95
2024-01-18T11:47:36.295Z,98102.26
2024-01-18T11:50:09.349Z,98109.98
2024-01-18T11:52:41.194Z,98116.39
2024-01-18T11:55:15.318Z,98107.42
2024-01-18T11:57:46.132Z,98107.77
2024-01-18T12:00:17.914Z,98110.98
2024-01-18T12:02:48.901Z,98108.77
2024-01-18T12:05:19.945Z,98111.80
2024-01-18T12:07:51.831Z,98111.10
2024-01-18T12:10:23.074Z,98096.85
2024-01-18T12:12:55.650Z,98097.68
2024-01-18T12:15:26.295Z,98094.16
2024-01-18T12:17:58.239Z,98092.14
2024-01-18T12:20:28.930Z,98087.51
2024-01-18T12:23:02.169Z,98095.73
2024-01-18T12:25:34.641Z,98111.88
2024-01-18T12:28:06.235Z,98112.17
2024-01-18T12:30:36.968Z,98101.72
2024-01-18T12:33:08.721Z,98105.45
2024-01-18T12:35:41.190Z,98119.66
2024-01-18T12:38:11.678Z,98116.14
2024-01-18T12:40:42.151Z,98114.98
2024-01-18T12:43:12.984Z,98111.95
2024-01-18T12:45:44.252Z,98107.90
2024-01-18T12:48:15.041Z,98115.50
2024-01-18T12:50:45.706Z,98119.90
2024-01-18T12:53:16.385Z,98124.00
2024-01-18T12:55:47.213Z,98120.25
2024-01-18T12:58:18.846Z,98122.27
2024-01-18T13:00:54.116Z,98128.17
2024-01-18T13:03:25.163Z,98138.80
2024-01-18T13:05:58.776Z,98147.21
2024-01-18T13:08:29.287Z,98138.06
2024-01-18T13:11:00.171Z,98135.48
2024-01-18T13:13:32.103Z,98134.44
2024-01-18T13:16:03.486Z,98134.08
2024-01-18T13:18:34.225Z,98130.34
2024-01-18T13:21:06.583Z,98132.69
2024-01-18T13:23:37.439Z,98144.50
2024-01-18T13:26:08.971Z,98148.21
2024-01-18T13:28:39.823Z,98155.77
2024-01-18T13:31:10.994Z,98163.01
2024-01-18T13:33:42.105Z,98168.88
2024-01-18T13:36:13.196Z,98174.11
2024-01-18T13:38:44.066Z,98184.73
2024-01-18T13:41:14.549Z,98183.73
2024-01-18T13:43:46.877Z,98178.86
2024-01-18T13:46:18.518Z,98180.55
2024-01-18T13:48:49.074Z,98189.18
2024-01-18T13:51:19.664Z,98188.16
2024-01-18T13:53:51.802Z,98194.05
2024-01-18T13:56:23.838Z,98193.72
2024-01-18T13:58:54.504Z,98198.94
2024-01-18T14:01:25.150Z,98199.94
2024-01-18T14:03:56.002Z,98200.95
2024-01-18T14:06:26.934Z,98214.45
2024-01-18T14:08:58.790Z,98225.58
2024-01-18T14:11:29.607Z,98231.52
2024-01-18T14:14:00.092Z,98227.77
2024-01-18T14:16:30.822Z,98239.23
2024-01-18T14:19:01.386Z,98243.79
2024-01-18T14:21:32.068Z,98250.37
2024-01-18T14:24:02.794Z,98260.26
2024-01-18T14:26:33.545Z,98260.02
2024-01-18T14:29:11.830Z,98262.86
2024-01-18T14:31:42.471Z,98266.52
2024-01-18T14:34:13.039Z,98265.61
2024-01-18T14:36:43.715Z,98271.84
2024-01-18T14:39:16.591Z,98277.54
2024-01-18T14:41:47.254Z,98291.70
2024-01-18T14:44:17.729Z,98300.26
2024-01-18T14:46:48.252Z,98307.64
2024-01-18T14:49:22.288Z,98307.71
2024-01-18T14:51:52.963Z,98314.94
2024-01-18T14:54:23.576Z,98320.29
2024-01-18T14:56:54.238Z,98326.46
2024-01-18T14:59:24.960Z,98332.09
2024-01-18T15:01:55.572Z,98328.45
2024-01-18T15:04:26.265Z,98331.13
2024-01-18T15:06:56.983Z,98335.15
2024-01-18T15:09:27.596Z,98340.52
2024-01-18T15:11:58.165Z,98348.08
2024-01-18T15:14:28.714Z,98357.84
2024-01-18T15:16:59.521Z,98364.02
2024-01-18T15:19:30.068Z,98362.09
2024-01-18T15:22:01.061Z,98372.15
2024-01-18T15:24:31.938Z,98376.67
2024-01-18T15:27:02.461Z,98383.20
2024-01-18T15:29:33.014Z,98391.62
2024-01-18T15:32:04.536Z,98402.41
2024-01-18T15:34:35.991Z,98413.13
2024-01-18T15:37:07.144Z,98425.08
2024-01-18T15:39:37.722Z,98434.14
2024-01-18T15:42:08.579Z,98448.46
2024-01-18T15:44:39.066Z,98457.04
2024-01-18T15:47:15.099Z,98453.55
2024-01-18T15:49:46.013Z,98448.73
2024-01-18T15:52:16.637Z,98450.77
2024-01-18T15:54:47.329Z,98453.87
2024-01-18T15:57:18.141Z,98457.55
2024-01-18T15:59:49.315Z,98459.18
2024-01-18T16:02:19.975Z,98458.60
2024-01-18T16:04:51.448Z,98466.89
2024-01-18T16:07:22.115Z,98477.70
2024-01-18T16:09:52.739Z,98478.36
2024-01-18T16:12:23.322Z,98478.19
2024-01-18T16:14:53.917Z,98479.84
2024-01-18T16:17:24.493Z,98479.13
2024-01-18T16:19:55.153Z,98483.98
2024-01-18T16:22:25.653Z,98490.06
2024-01-18T16:24:56.302Z,98501.40
2024-01-18T16:27:26.965Z,98507.24
2024-01-18T16:30:03.190Z,98513.42
2024-01-18T16:32:37.427Z,98519.43
2024-01-18T16:35:11.368Z,98525.24
2024-01-18T16:37:42.066Z,98530.75
2024-01-18T16:40:13.639Z,98537.35
2024-01-18T16:42:44.217Z,98545.35
2024-01-18T16:45:15.553Z,98552.09
2024-01-18T16:47:46.109Z,98555.94
2024-01-18T16:50:16.848Z,98563.00
2024-01-18T16:52:47.409Z,98569.80
2024-01-18T16:55:18.091Z,98571.33
2024-01-18T17:00:24.757Z,98579.02
2024-01-18T17:02:55.302Z,98591.17
2024-01-18T17:05:26.256Z,98603.10
2024-01-18T17:07:57.187Z,98609.98
2024-01-18T17:10:27.753Z,98613.10
2024-01-18T17:12:58.303Z,98621.20
2024-01-18T17:15:28.831Z,98618.27
2024-01-18T17:17:59.942Z,98620.48
2024-01-18T17:20:30.854Z,98628.65
2024-01-18T17:23:01.498Z,98633.50
2024-01-18T17:25:32.062Z,98647.64
2024-01-18T17:28:02.538Z,98650.65
2024-01-18T17:30:33.031Z,98647.97
2024-01-18T17:33:04.019Z,98646.62
2024-01-18T17:35:36.096Z,98644.76
2024-01-18T17:38:07.810Z,98648.65
2024-01-18T17:40:38.521Z,98653.80
2024-01-18T17:43:09.122Z,98656.85
2024-01-18T17:45:39.599Z,98661.64
2024-01-18T17:48:10.942Z,98664.20
2024-01-18T17:50:44.279Z,98678.71
2024-01-18T17:53:15.278Z,98682.77
2024-01-18T17:55:47.234Z,98686.17
2024-01-18T17:58:17.781Z,98693.09
2024-01-18T18:00:48.477Z,98693.55
2024-01-18T18:03:19.088Z,98693.15
2024-01-18T18:05:49.718Z,98695.41
2024-01-18T18:08:20.505Z,98708.14
2024-01-18T18:10:51.988Z,98720.02
2024-01-18T18:13:23.974Z,98726.48
2024-01-18T18:15:55.331Z,98732.44
2024-01-18T18:18:26.495Z,98730.46
2024-01-18T18:20:57.435Z,98735.91
2024-01-18T18:23:28.015Z,98741.92
2024-01-18T18:26:02.322Z,98743.64
2024-01-18T18:28:35.184Z,98756.90
2024-01-18T18:31:06.101Z,98761.58
2024-01-18T18:33:36.784Z,98765.52
2024-01-18T18:36:08.237Z,98767.72
2024-01-18T18:38:39.843Z,98774.64
2024-01-18T18:41:11.088Z,98781.91
2024-01-18T18:43:43.823Z,98793.33
2024-01-18T18:46:14.680Z,98798.34
2024-01-18T18:48:46.594Z,98800.59
2024-01-18T18:51:17.226Z,98805.04
2024-01-18T18:53:47.838Z,98810.14
2024-01-18T18:56:18.386Z,98817.13
2024-01-18T18:58:48.978Z,98824.30
2024-01-18T19:01:19.650Z,98831.48
2024-01-18T19:03:50.194Z,98835.30
2024-01-18T19:06:20.812Z,98840.20
2024-01-18T19:08:52.820Z,98850.77
2024-01-18T19:11:23.824Z,98856.52
2024-01-18T19:13:54.695Z,98858.41
2024-01-18T19:16:25.380Z,98859.96
2024-01-18T19:18:55.945Z,98862.22
2024-01-18T19:21:26.618Z,98868.34
2024-01-18T19:23:57.194Z,98874.27
2024-01-18T19:26:27.693Z,98881.59
2024-01-18T19:28:58.276Z,98886.65
2024-01-18T19:31:28.749Z,98892.39
2024-01-18T19:33:59.261Z,98893.67
2024-01-18T19:36:29.801Z,98906.09
2024-01-18T19:39:00.698Z,98919.17
2024-01-18T19:41:31.310Z,98916.80
2024-01-18T19:44:01.916Z,98919.00
2024-01-18T19:46:32.419Z,98932.73
2024-01-18T19:49:03.368Z,98941.39
2024-01-18T19:51:34.234Z,98948.52
2024-01-18T19:54:05.147Z,98951.09
2024-01-18T19:56:35.793Z,98961.08
2024-01-18T19:59:08.245Z,98973.42
2024-01-18T20:01:38.781Z,98974.41
2024-01-18T20:04:09.260Z,98972.02
2024-01-18T20:06:39.896Z,98975.28
2024-01-18T20:09:11.327Z,98982.19
2024-01-18T20:11:41.942Z,98988.13
2024-01-18T20:14:12.490Z,98993.00
2024-01-18T20:16:43.100Z,98993.42
2024-01-18T20:19:13.692Z,98989.45
2024-01-18T20:21:44.217Z,98999.08
2024-01-18T20:24:15.040Z,99005.93
2024-01-18T20:26:45.727Z,99009.85
2024-01-18T20:29:17.116Z,99010.15
2024-01-18T20:31:47.708Z,99010.86
2024-01-18T20:34:18.633Z,99020.13
2024-01-18T20:36:50.972Z,99027.55
2024-01-18T20:39:21.527Z,99035.70
2024-01-18T20:41:52.104Z,99054.27
2024-01-18T20:44:22.665Z,99061.30
2024-01-18T20:46:53.256Z,99070.16
2024-01-18T20:49:24.650Z,99073.48
2024-01-18T20:51:55.186Z,99076.05
2024-01-18T20:54:25.679Z,99081.75
2024-01-18T20:56:56.310Z,99089.52
2024-01-18T20:59:26.908Z,99095.75
2024-01-18T21:01:57.514Z,99101.11
2024-01-18T21:04:28.237Z,99105.45
2024-01-18T21:06:58.846Z,99100.98
2024-01-18T21:09:29.568Z,99108.84
2024-01-18T21:12:00.058Z,99107.17
2024-01-18T21:14:32.428Z,99114.53
2024-01-18T21:17:03.368Z,99116.27
2024-01-18T21:19:34.101Z,99119.98
2024-01-18T21:22:04.742Z,99124.27
2024-01-18T21:24:35.220Z,99130.94
2024-01-18T21:27:05.988Z,99135.54
2024-01-18T21:29:36.551Z,99143.06
2024-01-18T21:32:07.677Z,99149.16
2024-01-18T21:34:38.298Z,99150.96
2024-01-18T21:37:09.857Z,99154.13
2024-01-18T21:39:40.314Z,99159.89
2024-01-18T21:42:10.911Z,99164.67
2024-01-18T21:44:41.543Z,99168.11
2024-01-18T21:47:12.349Z,99182.74
2024-01-18T21:49:43.186Z,99188.45
2024-01-18T21:52:14.104Z,99194.36
2024-01-18T21:54:46.279Z,99196.06
2024-01-18T21:57:19.635Z,99203.45
2024-01-18T21:59:51.914Z,99206.89
2024-01-18T22:02:22.698Z,99214.61
2024-01-18T22:04:53.204Z,99213.10
2024-01-18T22:07:23.757Z,99218.66
2024-01-18T22:09:54.284Z,99227.39
2024-01-18T22:12:24.846Z,99232.05
2024-01-18T22:14:55.397Z,99241.52
2024-01-18T22:17:26.017Z,99243.80
2024-01-18T22:20:01.938Z,99249.60
2024-01-18T22:22:36.007Z,99250.80
2024-01-18T22:25:07.466Z,99253.88
2024-01-18T22:27:37.931Z,99264.23
2024-01-18T22:30:11.257Z,99270.98
2024-01-18T22:32:41.828Z,99272.77
2024-01-18T22:35:12.733Z,99277.00
2024-01-18T22:37:43.416Z,99286.39
2024-01-18T22:40:14.832Z,99294.48
2024-01-18T22:42:45.409Z,99307.13
2024-01-18T22:45:16.371Z,99314.89
2024-01-18T22:47:46.913Z,99319.59
2024-01-18T22:50:17.635Z,99330.79
2024-01-18T22:52:48.298Z,99334.15
2024-01-18T22:55:18.865Z,99340.86
2024-01-18T22:57:49.410Z,99341.92
2024-01-18T23:00:20.471Z,99351.20
2024-01-18T23:02:50.955Z,99353.98
2024-01-18T23:05:21.703Z,99356.67
2024-01-18T23:07:52.306Z,99364.28
2024-01-18T23:10:22.979Z,99366.91
2024-01-18T23:12:53.493Z,99371.42
2024-01-18T23:15:23.976Z,99370.15
2024-01-18T23:17:54.499Z,99370.98
2024-01-18T23:20:25.045Z,99376.66
2024-01-18T23:22:55.563Z,99384.37
2024-01-18T23:25:26.045Z,99386.31
2024-01-18T23:27:56.582Z,99392.02
2024-01-18T23:30:27.170Z,99394.73
2024-01-18T23:32:57.699Z,99403.15
2024-01-18T23:35:28.230Z,99412.88
2024-01-18T23:37:58.751Z,99414.56
2024-01-18T23:40:29.287Z,99410.76
2024-01-18T23:42:59.747Z,99417.24
2024-01-18T23:45:30.636Z,99420.73
2024-01-18T23:48:01.275Z,99418.71
2024-01-18T23:50:31.969Z,99422.20
2024-01-18T23:53:02.544Z,99427.13
2024-01-18T23:55:33.412Z,99431.95
2024-01-18T23:58:03.922Z,99433.89
